Time;durP1;ratioP1;P1;durP2;ratioP2;P2;SDS_P1;SDS_P2;PMS_P1;PMS_P2;Temp;Humidity;BMP_temperature;BMP_pressure;BME280_temperature;BME280_humidity;BME280_pressure;Samples;Min_cycle;Max_cycle;Signal;HPM_P1;HPM_P2
2023/10/06 00:01:28;;;;;;;27.10;11.90;;;;;;;13.88;57.08;100804.59;124100;1102;104197;-74
2023/10/06 00:04:06;;;;;;;25.23;12.00;;;;;;;13.78;57.70;100803.45;124114;1102;102038;-74
2023/10/06 00:06:39;;;;;;;26.70;12.43;;;;;;;13.72;58.13;100797.13;124144;1101;102051;-73
2023/10/06 00:09:20;;;;;;;26.57;11.23;;;;;;;13.70;57.97;100810.27;124113;1102;104173;-73
2023/10/06 00:11:52;;;;;;;26.80;11.77;;;;;;;13.64;58.14;100810.10;124138;1102;101932;-73
2023/10/06 00:14:38;;;;;;;33.07;11.57;;;;;;;13.60;58.57;100809.13;124133;1102;104208;-73
2023/10/06 00:17:15;;;;;;;28.40;11.30;;;;;;;13.59;58.34;100809.09;124153;1102;102074;-73
2023/10/06 00:19:48;;;;;;;29.87;10.97;;;;;;;13.52;58.51;100805.36;124160;1101;104280;-73
2023/10/06 00:22:19;;;;;;;26.13;11.10;;;;;;;13.51;58.98;100800.05;124048;1102;104169;-73
2023/10/06 00:24:51;;;;;;;25.40;10.30;;;;;;;13.47;59.17;100815.77;124151;1101;104230;-74
2023/10/06 00:27:24;;;;;;;24.20;10.67;;;;;;;13.42;58.84;100808.60;124101;1102;101871;-74
2023/10/06 00:29:56;;;;;;;25.53;10.77;;;;;;;13.34;59.34;100813.65;124111;1102;104179;-74
2023/10/06 00:32:28;;;;;;;26.27;11.07;;;;;;;13.31;59.45;100817.04;124179;1102;101940;-74
2023/10/06 00:35:08;;;;;;;24.33;11.33;;;;;;;13.28;59.35;100818.70;124134;1100;101846;-74
2023/10/06 00:37:40;;;;;;;27.33;11.00;;;;;;;13.22;60.09;100819.41;124153;1102;104533;-73
2023/10/06 00:40:19;;;;;;;25.97;10.33;;;;;;;13.23;60.00;100818.56;124132;1102;104206;-74
2023/10/06 00:42:56;;;;;;;22.60;10.30;;;;;;;13.16;60.42;100820.97;124176;1102;104278;-74
2023/10/06 00:45:30;;;;;;;25.53;10.80;;;;;;;13.11;60.26;100824.34;124110;1102;104245;-74
2023/10/06 00:48:08;;;;;;;26.80;11.10;;;;;;;13.05;60.29;100825.91;124172;1101;101877;-73
2023/10/06 00:50:40;;;;;;;27.17;10.63;;;;;;;13.01;60.61;100831.91;124126;1102;104261;-73
2023/10/06 00:53:13;;;;;;;27.10;10.57;;;;;;;12.97;60.46;100838.84;124188;1101;104344;-74
2023/10/06 00:55:45;;;;;;;31.48;11.33;;;;;;;12.92;60.85;100833.42;124168;1102;104233;-73
2023/10/06 00:58:19;;;;;;;25.37;10.77;;;;;;;12.86;60.70;100830.59;124230;1102;102183;-73
2023/10/06 01:00:52;;;;;;;23.40;9.90;;;;;;;12.84;61.22;100844.55;124129;1102;104064;-73
2023/10/06 01:03:25;;;;;;;24.57;10.35;;;;;;;12.82;61.37;100840.98;124202;1102;104242;-73
2023/10/06 01:06:05;;;;;;;27.70;10.40;;;;;;;12.80;61.44;100846.20;124140;1099;104277;-73
2023/10/06 01:08:37;;;;;;;25.83;10.00;;;;;;;12.80;61.13;100851.47;124163;1099;103665;-73
2023/10/06 01:11:12;;;;;;;27.23;10.50;;;;;;;12.81;61.47;100862.89;124109;1099;104254;-73
2023/10/06 01:13:52;;;;;;;26.93;9.80;;;;;;;12.81;61.57;100860.25;124130;1099;104217;-73
2023/10/06 01:16:31;;;;;;;25.43;9.90;;;;;;;12.80;61.99;100859.38;124234;1102;104277;-73
2023/10/06 01:19:14;;;;;;;24.00;9.90;;;;;;;12.79;62.07;100864.59;124115;1102;104252;-73
2023/10/06 01:21:49;;;;;;;30.43;11.27;;;;;;;12.75;62.00;100871.50;124132;1100;104290;-74
2023/10/06 01:24:25;;;;;;;27.13;10.40;;;;;;;12.68;62.07;100874.77;124105;1100;103735;-73
2023/10/06 01:26:59;;;;;;;28.90;10.00;;;;;;;12.63;62.30;100873.73;124186;1102;107758;-73
2023/10/06 01:29:31;;;;;;;23.27;10.23;;;;;;;12.58;62.60;100870.94;124109;1102;104300;-74
2023/10/06 01:32:05;;;;;;;24.70;10.07;;;;;;;12.56;62.58;100864.73;124065;1102;101934;-74
2023/10/06 01:34:38;;;;;;;25.20;10.73;;;;;;;12.54;62.56;100859.42;124197;1102;104197;-74
2023/10/06 01:37:10;;;;;;;25.62;9.38;;;;;;;12.53;62.56;100864.64;124157;1102;118287;-73
2023/10/06 01:39:43;;;;;;;24.93;10.23;;;;;;;12.56;62.95;100870.00;124109;1102;104188;-73
2023/10/06 01:42:17;;;;;;;24.03;10.40;;;;;;;12.53;63.02;100878.68;124136;1102;104237;-73
2023/10/06 01:44:49;;;;;;;24.20;9.53;;;;;;;12.58;63.03;100882.36;124114;1102;104241;-73
2023/10/06 01:47:22;;;;;;;26.37;10.03;;;;;;;12.62;62.96;100885.09;124150;1099;104217;-73
2023/10/06 01:49:53;;;;;;;25.37;9.70;;;;;;;12.63;62.83;100884.26;124143;1102;104357;-74
2023/10/06 01:52:24;;;;;;;21.53;9.63;;;;;;;12.63;63.27;100884.26;124109;1102;104194;-73
2023/10/06 01:54:58;;;;;;;25.30;9.90;;;;;;;12.63;63.32;100892.16;124209;1099;104158;-73
2023/10/06 01:57:28;;;;;;;;;;;;;;;12.58;63.74;100898.15;124156;1102;104169;-73
2023/10/06 01:59:59;;;;;;;23.63;10.00;;;;;;;12.55;63.65;100899.80;124133;1102;101980;-73
2023/10/06 02:02:30;;;;;;;23.63;9.53;;;;;;;12.47;63.67;100912.69;124135;1102;104415;-73
2023/10/06 02:05:01;;;;;;;25.87;10.30;;;;;;;12.35;63.99;100917.52;124133;1101;104179;-73
2023/10/06 02:07:35;;;;;;;23.77;9.70;;;;;;;12.26;64.33;100923.34;124195;1102;104178;-74
2023/10/06 02:10:12;;;;;;;22.80;10.47;;;;;;;12.20;64.09;100924.05;124202;1102;104332;-74
2023/10/06 02:12:43;;;;;;;26.53;10.00;;;;;;;12.15;64.52;100930.85;124168;1102;104178;-73
2023/10/06 02:15:15;;;;;;;26.27;10.23;;;;;;;12.08;64.82;100934.12;124169;1102;104647;-73
2023/10/06 02:17:47;;;;;;;22.20;10.10;;;;;;;12.04;65.00;100942.73;124156;1099;101983;-73
2023/10/06 02:20:30;;;;;;;23.60;9.40;;;;;;;12.01;65.09;100935.64;124165;1101;101894;-73
2023/10/06 02:23:03;;;;;;;22.37;10.00;;;;;;;12.00;65.74;100935.59;124118;1102;104274;-73
2023/10/06 02:25:36;;;;;;;21.60;9.53;;;;;;;11.97;65.18;100940.73;124152;1102;104185;-73
2023/10/06 02:28:09;;;;;;;23.57;9.30;;;;;;;11.94;65.27;100940.62;124151;1099;102069;-73
2023/10/06 02:30:44;;;;;;;24.03;10.07;;;;;;;11.96;65.48;100949.45;124097;1102;104316;-73
2023/10/06 02:33:16;;;;;;;22.13;9.60;;;;;;;11.96;66.03;100938.93;124124;1102;104341;-73
2023/10/06 02:35:50;;;;;;;24.65;9.55;;;;;;;11.95;65.72;100943.30;124203;1099;101926;-73
2023/10/06 02:38:34;;;;;;;20.43;9.20;;;;;;;11.94;65.63;100937.98;124154;1099;104280;-73
2023/10/06 02:41:07;;;;;;;24.37;9.43;;;;;;;11.98;65.66;100940.78;124204;1099;102079;-73
2023/10/06 02:43:40;;;;;;;24.00;9.60;;;;;;;11.98;65.68;100940.78;124143;1099;101839;-73
2023/10/06 02:46:12;;;;;;;22.00;9.97;;;;;;;11.99;65.81;100939.92;124222;1099;104245;-73
2023/10/06 02:48:49;;;;;;;26.77;9.63;;;;;;;12.01;65.86;100948.80;124192;1099;111382;-73
2023/10/06 02:51:28;;;;;;;27.93;9.40;;;;;;;12.03;65.71;100954.11;124180;1099;104245;-73
2023/10/06 02:54:21;;;;;;;22.83;9.33;;;;;;;12.05;65.98;100957.68;124172;1099;104310;-73
2023/10/06 02:56:55;;;;;;;24.40;9.10;;;;;;;12.05;65.99;100960.31;124150;1099;104233;-73
2023/10/06 02:59:34;;;;;;;21.85;9.05;;;;;;;12.05;65.73;100952.42;124076;1099;104438;-73
2023/10/06 03:02:07;;;;;;;25.27;8.33;;;;;;;12.10;65.84;100965.74;124098;1099;102484;-73
2023/10/06 03:04:39;;;;;;;23.50;9.43;;;;;;;12.10;65.89;100964.00;124124;1099;104268;-74
2023/10/06 03:07:18;;;;;;;20.00;8.47;;;;;;;12.12;66.24;100964.94;124143;1099;101985;-73
2023/10/06 03:09:50;;;;;;;21.07;8.33;;;;;;;12.12;66.44;100970.20;124090;1102;104345;-73
2023/10/06 03:12:26;;;;;;;23.83;9.17;;;;;;;12.14;66.31;100960.65;124149;1102;104724;-73
2023/10/06 03:14:59;;;;;;;21.33;8.37;;;;;;;12.14;66.57;100965.91;124169;1102;104172;-73
2023/10/06 03:17:31;;;;;;;21.47;8.77;;;;;;;12.16;66.96;100958.96;124261;1101;104169;-74
2023/10/06 03:20:10;;;;;;;25.23;9.70;;;;;;;12.17;66.74;100959.84;124247;1102;101904;-73
2023/10/06 03:22:48;;;;;;;21.67;7.90;;;;;;;12.17;66.78;100955.50;124147;1102;101983;-73
2023/10/06 03:25:20;;;;;;;22.20;8.43;;;;;;;12.18;66.65;100952.02;124189;1101;104300;-74
2023/10/06 03:27:54;;;;;;;21.23;8.27;;;;;;;12.20;66.91;100950.35;124150;1102;104160;-74
2023/10/06 03:30:28;;;;;;;23.97;9.13;;;;;;;12.20;66.33;100945.09;124139;1102;104262;-74
2023/10/06 03:33:00;;;;;;;21.10;8.53;;;;;;;12.21;66.82;100948.61;124242;1102;104296;-73
2023/10/06 03:35:39;;;;;;;21.87;8.77;;;;;;;12.21;66.73;100952.13;124134;1102;104271;-74
2023/10/06 03:38:27;;;;;;;20.87;8.37;;;;;;;12.22;66.67;100948.66;124124;1102;104201;-73
2023/10/06 03:41:20;;;;;;;23.10;8.67;;;;;;;12.27;66.65;100950.58;124166;1102;101954;-73
2023/10/06 03:43:53;;;;;;;24.50;9.33;;;;;;;12.28;66.58;100947.08;124130;1099;104195;-73
2023/10/06 03:46:25;;;;;;;23.67;8.57;;;;;;;12.27;66.48;100948.83;124193;1102;104236;-74
2023/10/06 03:48:56;;;;;;;19.10;7.90;;;;;;;12.23;66.55;100957.44;124104;1102;102351;-73
2023/10/06 03:51:29;;;;;;;22.60;8.80;;;;;;;12.20;66.59;100960.88;124121;1102;104232;-73
2023/10/06 03:54:00;;;;;;;23.13;8.77;;;;;;;12.19;66.52;100973.97;124066;1099;104239;-73
2023/10/06 03:56:32;;;;;;;21.93;8.53;;;;;;;12.16;66.78;100976.49;124173;1102;104169;-73
2023/10/06 03:59:12;;;;;;;20.70;8.70;;;;;;;12.14;66.75;100978.15;124140;1099;101945;-74
2023/10/06 04:01:45;;;;;;;20.07;8.37;;;;;;;12.14;66.75;100967.62;124105;1099;104163;-74
2023/10/06 04:04:21;;;;;;;20.60;8.37;;;;;;;12.12;66.76;100969.31;124147;1099;104054;-74
2023/10/06 04:06:56;;;;;;;21.97;8.67;;;;;;;12.11;66.45;100978.95;124102;1099;104172;-73
2023/10/06 04:09:28;;;;;;;22.73;8.73;;;;;;;12.12;66.87;100979.84;124091;1099;104251;-74
2023/10/06 04:12:01;;;;;;;20.70;8.90;;;;;;;12.14;66.65;100973.80;124152;1098;104188;-74
2023/10/06 04:14:33;;;;;;;25.63;9.17;;;;;;;12.18;66.85;100982.70;124128;1099;104169;-75
2023/10/06 04:17:05;;;;;;;22.75;8.20;;;;;;;12.15;66.99;100980.84;124175;1099;104201;-74
2023/10/06 04:19:36;;;;;;;25.07;8.80;;;;;;;12.15;67.15;100986.09;124230;1099;102220;-75
2023/10/06 04:22:08;;;;;;;20.60;8.20;;;;;;;12.13;67.17;100973.75;124179;1099;101923;-73
2023/10/06 04:24:40;;;;;;;21.87;8.83;;;;;;;12.13;67.08;100972.00;124196;1099;104166;-74
2023/10/06 04:27:11;;;;;;;18.27;7.93;;;;;;;12.13;67.19;100972.00;124159;1098;104236;-73
2023/10/06 04:29:43;;;;;;;25.40;8.83;;;;;;;12.14;67.16;100976.44;124149;1099;104163;-73
2023/10/06 04:32:14;;;;;;;21.50;7.97;;;;;;;12.15;67.25;100987.84;124207;1102;101872;-74
2023/10/06 04:34:47;;;;;;;18.25;8.20;;;;;;;12.15;67.57;100987.84;124168;1102;104249;-73
2023/10/06 04:37:22;;;;;;;22.60;8.90;;;;;;;12.16;67.44;100995.80;124274;1102;102053;-73
2023/10/06 04:39:53;;;;;;;26.57;8.73;;;;;;;12.16;67.57;100990.53;124297;1099;104437;-73
2023/10/06 04:42:24;;;;;;;24.07;9.73;;;;;;;12.17;67.90;101000.23;124318;1099;101863;-74
2023/10/06 04:44:56;;;;;;;19.53;8.30;;;;;;;12.17;67.38;101005.48;124349;1099;104169;-74
2023/10/06 04:47:31;;;;;;;22.83;8.73;;;;;;;12.25;67.60;101015.38;124412;1099;104204;-74
2023/10/06 04:50:02;;;;;;;21.30;8.53;;;;;;;12.20;67.67;101017.84;124227;1099;104162;-73
2023/10/06 04:52:33;;;;;;;21.00;8.50;;;;;;;12.20;67.68;101021.39;124258;1099;102522;-74
2023/10/06 04:55:05;;;;;;;23.93;8.03;;;;;;;12.19;67.62;101027.48;124248;1099;104203;-75
2023/10/06 04:57:37;;;;;;;25.00;8.77;;;;;;;12.23;67.95;101037.29;124232;1098;101995;-75
2023/10/06 05:00:15;;;;;;;23.40;9.37;;;;;;;12.27;67.91;101034.77;124365;1099;103613;-76
2023/10/06 05:02:47;;;;;;;19.37;8.13;;;;;;;12.29;67.83;101035.72;124361;1099;102147;-75
2023/10/06 05:05:20;;;;;;;23.23;8.43;;;;;;;12.32;68.03;101039.34;124234;1099;104185;-75
2023/10/06 05:07:53;;;;;;;22.80;9.08;;;;;;;12.38;68.23;101038.69;124245;1099;104205;-75
2023/10/06 05:10:25;;;;;;;19.03;8.70;;;;;;;12.39;68.00;101045.76;124239;1099;104262;-75
2023/10/06 05:12:57;;;;;;;22.65;8.50;;;;;;;12.45;68.03;101051.25;124259;1099;101836;-74
2023/10/06 05:15:30;;;;;;;23.53;8.10;;;;;;;12.50;68.01;101052.30;124236;1099;104188;-75
2023/10/06 05:18:02;;;;;;;26.83;9.33;;;;;;;12.52;68.12;101047.09;124390;1099;104166;-76
2023/10/06 05:20:35;;;;;;;26.17;10.20;;;;;;;12.53;68.42;101051.53;124239;1099;104108;-77
2023/10/06 05:23:09;;;;;;;23.40;9.00;;;;;;;12.59;68.48;101054.39;124398;1099;101994;-77
2023/10/06 05:25:41;;;;;;;24.47;9.45;;;;;;;12.62;68.10;101067.66;124175;1099;101866;-77
2023/10/06 05:28:16;;;;;;;26.80;9.57;;;;;;;12.67;68.23;101057.27;124793;1099;102010;-79
2023/10/06 05:30:49;;;;;;;25.43;9.73;;;;;;;12.70;68.28;101065.28;125217;1099;102031;-76
2023/10/06 05:33:22;;;;;;;28.20;9.93;;;;;;;12.76;68.13;101063.78;124479;1102;102465;-76
2023/10/06 05:35:53;;;;;;;26.40;10.10;;;;;;;12.84;68.14;101063.14;124756;1102;102096;-78
2023/10/06 05:38:25;;;;;;;23.17;9.63;;;;;;;12.89;68.32;101062.47;124737;1102;102003;-78
2023/10/06 05:41:02;;;;;;;21.40;8.40;;;;;;;12.92;68.25;101072.23;124774;1100;104217;-75
2023/10/06 05:43:33;;;;;;;27.00;9.60;;;;;;;13.00;68.53;101067.23;125700;1100;102042;-75
2023/10/06 05:46:11;;;;;;;29.57;9.20;;;;;;;13.07;68.33;101069.22;124455;1102;104231;-76
2023/10/06 05:48:43;;;;;;;24.67;9.43;;;;;;;13.15;68.35;101075.67;124340;1102;102335;-77
2023/10/06 05:51:21;;;;;;;22.90;8.63;;;;;;;13.25;68.53;101075.13;124227;1102;104194;-74
2023/10/06 05:53:55;;;;;;;27.40;8.80;;;;;;;13.38;68.38;101070.30;124443;1102;104175;-75
2023/10/06 05:56:29;;;;;;;23.10;8.43;;;;;;;13.50;68.22;101075.98;124266;1102;104251;-75
2023/10/06 05:59:02;;;;;;;22.35;8.60;;;;;;;13.61;67.68;101079.86;124379;1102;101849;-75
2023/10/06 06:01:35;;;;;;;25.67;8.80;;;;;;;13.73;67.67;101082.00;124524;1102;104271;-75
2023/10/06 06:04:12;;;;;;;23.33;9.00;;;;;;;13.84;67.54;101083.23;124589;1102;102049;-75
2023/10/06 06:06:46;;;;;;;21.93;8.97;;;;;;;13.95;67.71;101091.48;124439;1101;102008;-75
2023/10/06 06:09:19;;;;;;;23.80;8.87;;;;;;;14.06;67.35;101094.46;125681;1101;101823;-75
2023/10/06 06:11:51;;;;;;;23.90;9.27;;;;;;;14.14;67.24;101094.70;124392;1102;104197;-77
2023/10/06 06:14:23;;;;;;;21.00;9.00;;;;;;;14.23;67.39;101096.70;124255;1102;104332;-77
2023/10/06 06:16:55;;;;;;;22.90;8.43;;;;;;;14.31;67.62;101101.37;124490;1102;104266;-75
2023/10/06 06:19:27;;;;;;;26.20;8.20;;;;;;;14.42;67.26;101098.17;124505;1102;101937;-73
2023/10/06 06:21:59;;;;;;;22.60;8.77;;;;;;;14.51;66.18;101101.97;124283;1102;104172;-74
2023/10/06 06:24:30;;;;;;;;;;;;;;;14.59;65.94;101107.47;124270;1101;104175;-74
2023/10/06 06:27:05;;;;;;;24.30;8.00;;;;;;;14.68;66.13;101110.42;124180;1102;104737;-76
2023/10/06 06:29:38;;;;;;;21.97;8.13;;;;;;;14.79;65.74;101105.44;124587;1102;103374;-76
2023/10/06 06:32:14;;;;;;;21.10;7.62;;;;;;;14.87;66.52;101105.66;124776;1099;104194;-77
2023/10/06 06:34:47;;;;;;;24.30;9.00;;;;;;;14.99;65.78;101102.44;124213;1099;104156;-74
2023/10/06 06:37:20;;;;;;;25.08;8.25;;;;;;;15.12;65.07;101106.33;124241;1099;104166;-74
2023/10/06 06:39:52;;;;;;;23.27;8.37;;;;;;;15.23;65.05;101113.67;124341;1099;104245;-77
2023/10/06 06:42:24;;;;;;;24.20;8.33;;;;;;;15.37;65.50;101110.50;124210;1099;103369;-75
2023/10/06 06:45:00;;;;;;;26.23;7.53;;;;;;;15.51;65.08;101113.50;124315;1102;102360;-77
2023/10/06 06:47:36;;;;;;;23.43;7.47;;;;;;;15.63;64.79;101106.77;124392;1102;104245;-74
2023/10/06 06:50:15;;;;;;;21.73;7.67;;;;;;;15.77;64.27;101106.25;124213;1102;104243;-77
2023/10/06 06:52:48;;;;;;;24.17;7.63;;;;;;;15.90;62.97;101102.14;124306;1099;104300;-77
2023/10/06 06:55:21;;;;;;;20.70;7.33;;;;;;;16.04;63.50;101111.28;124322;1099;104258;-77
2023/10/06 06:58:05;;;;;;;20.60;7.63;;;;;;;16.17;63.25;101105.42;124422;1099;101980;-75
2023/10/06 07:00:39;;;;;;;19.83;7.53;;;;;;;16.32;63.07;101112.80;124205;1099;104061;-75
2023/10/06 07:03:31;;;;;;;27.13;7.80;;;;;;;16.45;62.14;101108.65;124168;1099;105469;-74
2023/10/06 07:06:30;;;;;;;20.60;7.57;;;;;;;16.62;61.48;101105.47;124164;1102;102494;-74
2023/10/06 07:09:12;;;;;;;18.40;6.97;;;;;;;16.72;61.73;101118.06;124149;1102;102042;-77
2023/10/06 07:11:58;;;;;;;25.37;7.50;;;;;;;16.86;62.04;101111.30;124175;1102;104172;-75
2023/10/06 07:14:30;;;;;;;21.27;7.13;;;;;;;17.00;61.57;101118.61;124188;1099;104233;-75
2023/10/06 07:17:01;;;;;;;18.73;7.20;;;;;;;17.12;61.46;101116.20;124285;1099;101890;-76
2023/10/06 07:19:33;;;;;;;19.83;6.97;;;;;;;17.21;60.19;101118.14;124176;1099;104248;-75
2023/10/06 07:22:05;;;;;;;22.83;7.10;;;;;;;17.28;60.27;101119.13;124130;1099;102771;-74
2023/10/06 07:24:37;;;;;;;20.93;7.10;;;;;;;17.34;58.90;101103.33;124130;1102;104227;-75
2023/10/06 07:27:09;;;;;;;21.13;6.73;;;;;;;17.40;59.33;101103.44;124177;1102;101923;-75
2023/10/06 07:29:43;;;;;;;18.23;6.30;;;;;;;17.48;59.22;101112.41;124131;1102;104192;-74
2023/10/06 07:32:15;;;;;;;20.30;6.80;;;;;;;17.52;58.62;101108.95;124130;1102;104224;-75
2023/10/06 07:34:53;;;;;;;20.43;6.93;;;;;;;17.58;58.60;101103.75;124175;1099;104172;-77
2023/10/06 07:37:24;;;;;;;17.83;6.50;;;;;;;17.69;57.91;101103.92;126419;1098;101894;-78
2023/10/06 07:40:02;;;;;;;15.83;6.40;;;;;;;17.77;57.93;101106.70;124483;1099;103434;-80
2023/10/06 07:43:05;;;;;;;20.20;7.93;;;;;;;17.87;57.75;101106.00;124364;1099;104300;-77
2023/10/06 07:45:37;;;;;;;18.03;6.37;;;;;;;17.96;57.36;101114.10;124188;1102;102054;-76
2023/10/06 07:48:09;;;;;;;21.43;6.80;;;;;;;17.94;56.94;101096.38;124155;1102;104179;-73
2023/10/06 07:50:40;;;;;;;19.50;6.40;;;;;;;18.07;56.93;101111.61;124099;1102;104380;-71
2023/10/06 07:53:15;;;;;;;18.37;6.67;;;;;;;18.13;56.28;101108.16;124123;1099;101961;-77
2023/10/06 07:55:49;;;;;;;21.23;6.43;;;;;;;18.17;56.52;101098.47;124415;1099;104242;-76
2023/10/06 07:58:20;;;;;;;21.20;7.20;;;;;;;18.19;55.78;101102.05;124523;1099;101846;-78
2023/10/06 08:00:54;;;;;;;20.00;7.23;;;;;;;18.24;55.70;101098.57;124342;1099;102044;-79
2023/10/06 08:03:26;;;;;;;20.27;6.27;;;;;;;18.36;55.83;101104.95;124511;1099;101917;-76
2023/10/06 08:06:02;;;;;;;22.63;6.97;;;;;;;18.40;54.41;101101.44;124259;1102;102153;-78
2023/10/06 08:08:34;;;;;;;19.20;7.17;;;;;;;18.45;54.50;101108.61;124471;1102;104265;-75
2023/10/06 08:11:06;;;;;;;18.77;6.83;;;;;;;18.49;54.81;101101.55;124169;1101;104204;-74
2023/10/06 08:13:39;;;;;;;17.07;6.47;;;;;;;18.54;53.73;101121.10;124231;1099;101978;-76
2023/10/06 08:16:12;;;;;;;19.47;6.47;;;;;;;18.53;53.21;101106.05;124388;1099;104166;-80
2023/10/06 08:18:43;;;;;;;17.92;6.50;;;;;;;18.57;53.87;101106.97;124304;1099;103363;-75
2023/10/06 08:21:15;;;;;;;18.80;7.10;;;;;;;18.64;53.14;101106.19;124216;1099;104244;-76
2023/10/06 08:23:47;;;;;;;18.13;6.87;;;;;;;18.66;53.55;101110.63;124255;1102;104259;-76
2023/10/06 08:26:19;;;;;;;23.90;7.00;;;;;;;18.72;53.59;101107.16;124249;1102;104274;-78
2023/10/06 08:28:51;;;;;;;20.80;7.13;;;;;;;18.73;53.10;101103.64;124262;1102;104268;-77
2023/10/06 08:31:26;;;;;;;19.65;6.60;;;;;;;18.78;53.31;101109.02;124489;1100;104182;-77
2023/10/06 08:34:01;;;;;;;19.82;6.53;;;;;;;18.85;52.51;101101.16;124224;1102;104313;-75
2023/10/06 08:36:38;;;;;;;18.70;7.00;;;;;;;18.85;51.94;101110.88;124246;1102;104344;-77
2023/10/06 08:39:10;;;;;;;19.20;6.67;;;;;;;18.85;52.27;101101.16;124571;1102;104182;-76
2023/10/06 08:41:57;;;;;;;18.87;6.70;;;;;;;18.93;51.94;101097.67;124443;1102;104233;-78
2023/10/06 08:44:30;;;;;;;15.83;6.27;;;;;;;19.06;52.12;101098.69;124492;1102;101990;-82
2023/10/06 08:47:01;;;;;;;16.73;6.00;;;;;;;19.16;52.28;101108.55;124886;1100;104220;-81
2023/10/06 08:49:33;;;;;;;16.13;6.27;;;;;;;19.20;51.29;101102.41;125967;1100;104172;-83
2023/10/06 08:52:08;;;;;;;17.45;6.20;;;;;;;19.24;51.80;101109.52;124769;1102;101897;-80
2023/10/06 08:54:43;;;;;;;16.37;5.80;;;;;;;19.24;50.49;101105.97;124901;1102;104102;-83
2023/10/06 08:57:15;;;;;;;16.37;5.47;;;;;;;19.22;50.14;101117.48;124691;1102;102083;-78
2023/10/06 08:59:47;;;;;;;16.83;5.80;;;;;;;19.16;49.05;101105.89;124542;1100;104176;-79
2023/10/06 09:02:18;;;;;;;17.53;6.27;;;;;;;19.16;49.89;101111.22;124658;1102;104214;-80
2023/10/06 09:04:50;;;;;;;15.43;5.13;;;;;;;19.20;49.69;101102.41;124762;1099;104198;-80
2023/10/06 09:07:31;;;;;;;15.40;5.20;;;;;;;19.24;49.31;101108.63;124723;1099;104172;-79
2023/10/06 09:10:18;;;;;;;11.97;4.40;;;;;;;19.25;48.37;101103.33;124774;1102;104162;-79
2023/10/06 09:13:02;;;;;;;14.07;4.87;;;;;;;19.26;48.43;101098.89;124530;1101;101826;-75
2023/10/06 09:15:35;;;;;;;16.65;4.75;;;;;;;19.31;47.93;101099.84;124331;1099;104172;-78
2023/10/06 09:18:20;;;;;;;13.95;4.40;;;;;;;19.38;48.14;101106.98;124631;1102;101884;-76
2023/10/06 09:20:52;;;;;;;14.03;4.17;;;;;;;19.41;47.26;101107.02;125796;1100;102031;-80
2023/10/06 09:23:36;;;;;;;12.80;4.00;;;;;;;19.46;46.00;101104.39;124650;1102;104242;-79
2023/10/06 09:26:11;;;;;;;13.87;4.47;;;;;;;19.44;47.11;101096.39;124749;1099;104277;-81
2023/10/06 09:28:52;;;;;;;12.43;4.30;;;;;;;19.55;47.31;101099.16;125498;1099;101919;-77
2023/10/06 09:31:40;;;;;;;10.50;3.90;;;;;;;19.63;46.77;101112.53;125304;1099;104226;-80
2023/10/06 09:34:12;;;;;;;15.17;4.63;;;;;;;19.68;45.85;101105.45;125336;1102;101951;-78
2023/10/06 09:36:50;;;;;;;9.33;3.63;;;;;;;19.78;45.52;101103.81;124687;1099;107793;-80
2023/10/06 09:39:32;;;;;;;10.60;3.80;;;;;;;19.92;45.84;101102.13;124455;1102;102026;-74
2023/10/06 09:42:09;;;;;;;16.47;4.43;;;;;;;20.07;45.67;101096.91;124359;1099;102033;-76
2023/10/06 09:45:15;;;;;;;8.00;3.60;;;;;;;20.22;45.30;101104.08;124327;1102;104181;-77
2023/10/06 09:47:56;;;;;;;9.60;3.50;;;;;;;20.27;44.73;101102.36;124433;1099;104166;-75
2023/10/06 09:50:28;;;;;;;8.50;3.63;;;;;;;20.30;44.54;101106.79;124327;1099;102124;-77
2023/10/06 09:53:04;;;;;;;12.67;3.93;;;;;;;20.37;45.30;101100.62;124634;1099;104265;-80
2023/10/06 09:55:42;;;;;;;13.37;4.03;;;;;;;20.38;44.73;101096.17;124790;1099;102084;-80
2023/10/06 09:58:15;;;;;;;12.57;4.50;;;;;;;20.32;44.58;101097.05;124868;1102;104319;-86
2023/10/06 10:01:04;;;;;;;14.07;4.20;;;;;;;20.35;44.17;101096.16;125818;1102;102347;-80
2023/10/06 10:03:37;;;;;;;19.30;4.93;;;;;;;20.29;44.57;101092.58;124612;1101;104352;-82
2023/10/06 10:06:14;;;;;;;15.20;4.58;;;;;;;20.29;44.62;101094.37;124713;1099;104275;-79
2023/10/06 10:08:48;;;;;;;13.73;4.30;;;;;;;20.37;44.59;101099.73;124855;1099;104214;-82
2023/10/06 10:11:21;;;;;;;;;;;;;;;20.42;43.79;101089.98;124923;1099;102259;-82
2023/10/06 10:14:08;;;;;;;20.13;4.00;;;;;;;20.38;43.53;101086.42;124792;1099;102076;-78
2023/10/06 10:17:02;;;;;;;11.13;3.93;;;;;;;20.36;42.83;101097.95;124661;1099;104240;-77
2023/10/06 10:19:36;;;;;;;12.83;4.23;;;;;;;20.40;43.07;101105.08;124756;1099;102163;-79
2023/10/06 10:22:11;;;;;;;19.63;4.67;;;;;;;20.41;43.20;101088.19;124669;1102;101965;-77
2023/10/06 10:24:45;;;;;;;15.07;4.27;;;;;;;20.40;43.13;101094.42;125001;1098;101795;-81
2023/10/06 10:27:22;;;;;;;11.20;3.63;;;;;;;20.34;42.32;101095.27;124865;1099;104165;-80
2023/10/06 10:30:03;;;;;;;12.57;4.00;;;;;;;20.36;42.33;101096.16;124733;1099;104200;-80
2023/10/06 10:32:41;;;;;;;9.80;4.10;;;;;;;20.35;43.33;101089.07;125793;1098;102103;-78
2023/10/06 10:35:16;;;;;;;13.77;4.30;;;;;;;20.45;42.49;101084.66;124253;1102;104257;-76
2023/10/06 10:38:02;;;;;;;13.33;4.40;;;;;;;20.53;42.94;101085.58;125504;1098;104278;-77
2023/10/06 10:40:51;;;;;;;12.67;4.27;;;;;;;20.54;42.89;101090.03;125269;1099;104130;-79
2023/10/06 10:43:24;;;;;;;12.77;4.60;;;;;;;20.50;42.76;101080.23;125786;1099;104166;-82
2023/10/06 10:46:01;;;;;;;16.97;4.40;;;;;;;20.25;41.09;101082.78;126700;1098;101845;-78
2023/10/06 10:48:38;;;;;;;14.83;4.90;;;;;;;20.15;41.19;101090.72;125328;1100;110809;-79
2023/10/06 10:51:22;;;;;;;17.30;4.60;;;;;;;20.13;41.41;101090.70;125263;1102;104363;-78
2023/10/06 10:53:59;;;;;;;17.23;4.60;;;;;;;20.16;41.76;101088.06;124566;1102;104176;-80
2023/10/06 10:56:43;;;;;;;13.67;4.10;;;;;;;20.24;41.97;101085.44;124529;1099;102280;-78
2023/10/06 10:59:18;;;;;;;17.20;4.60;;;;;;;20.39;41.48;101090.84;126395;1098;102029;-81
2023/10/06 11:02:39;;;;;;;12.43;4.03;;;;;;;20.52;41.28;101090.91;125177;1099;101996;-77
2023/10/06 11:05:26;;;;;;;13.03;4.00;;;;;;;20.55;41.08;101085.58;125826;1101;102262;-79
2023/10/06 11:08:05;;;;;;;17.67;4.23;;;;;;;20.57;41.22;101111.37;125309;1101;102706;-81
2023/10/06 11:10:45;;;;;;;19.73;5.75;;;;;;;20.55;40.48;101097.13;126265;1098;102073;-86
2023/10/06 11:13:33;;;;;;;9.90;4.00;;;;;;;20.43;40.59;101099.77;126291;1101;102064;-85
2023/10/06 11:16:25;;;;;;;13.93;4.05;;;;;;;20.45;40.84;101082.00;126286;1098;104207;-78
2023/10/06 11:19:07;;;;;;;10.30;3.80;;;;;;;20.56;41.05;101076.71;125900;1102;101878;-82
2023/10/06 11:24:50;;;;;;;12.97;3.40;;;;;;;20.69;39.89;101093.67;125722;1102;102387;-88
2023/10/06 11:27:37;;;;;;;13.30;3.27;;;;;;;20.67;40.20;101092.78;125705;1102;102168;-78
2023/10/06 11:30:28;;;;;;;13.58;4.12;;;;;;;20.70;39.83;101080.34;126916;1098;101504;-81
2023/10/06 11:33:06;;;;;;;9.20;3.30;;;;;;;20.76;39.79;101080.36;126170;1100;104251;-83
2023/10/06 11:35:44;;;;;;;8.97;3.20;;;;;;;20.82;39.99;101084.83;124919;1102;102503;-82
2023/10/06 11:38:27;;;;;;;7.93;3.17;;;;;;;20.87;38.77;101075.05;126200;1102;101729;-84
2023/10/06 11:41:21;;;;;;;10.17;3.20;;;;;;;20.88;39.39;101081.27;125383;1102;101864;-83
2023/10/06 11:44:02;;;;;;;9.97;3.77;;;;;;;20.87;39.33;101066.18;125746;1102;102234;-88